createdAt,value
2023-02-19T00:02:35.683Z,12.49
2023-02-19T00:05:38.361Z,12.43
2023-02-19T00:08:40.721Z,12.40
2023-02-19T00:11:44.053Z,12.37
2023-02-19T00:14:46.415Z,12.35
2023-02-19T00:17:49.065Z,12.27
2023-02-19T00:20:51.396Z,12.21
2023-02-19T00:23:57.628Z,12.17
2023-02-19T00:26:59.945Z,12.18
2023-02-19T00:30:02.688Z,12.27
2023-02-19T00:33:05.127Z,12.30
2023-02-19T00:36:08.073Z,12.16
2023-02-19T00:39:15.690Z,12.12
2023-02-19T00:42:19.801Z,12.14
2023-02-19T00:45:22.207Z,12.27
2023-02-19T00:48:24.925Z,12.17
2023-02-19T00:51:32.845Z,12.19
2023-02-19T00:54:35.509Z,12.12
2023-02-19T00:57:38.924Z,11.99
2023-02-19T01:00:41.590Z,12.12
2023-02-19T01:03:43.929Z,12.08
2023-02-19T01:06:48.685Z,12.18
2023-02-19T01:09:51.163Z,12.21
2023-02-19T01:12:53.885Z,12.16
2023-02-19T01:16:17.045Z,12.18
2023-02-19T01:19:19.684Z,12.18
2023-02-19T01:22:22.112Z,12.18
2023-02-19T01:25:24.738Z,12.21
2023-02-19T01:28:27.215Z,12.22
2023-02-19T01:31:31.068Z,12.11
2023-02-19T01:34:34.202Z,12.23
2023-02-19T01:37:37.432Z,12.24
2023-02-19T01:40:39.749Z,12.23
2023-02-19T01:44:01.346Z,12.17
2023-02-19T01:47:03.712Z,12.14
2023-02-19T01:50:06.729Z,12.07
2023-02-19T01:53:12.105Z,12.10
2023-02-19T01:56:18.603Z,12.05
2023-02-19T01:59:21.702Z,11.91
2023-02-19T02:02:28.519Z,12.01
2023-02-19T02:05:45.614Z,11.99
2023-02-19T02:09:10.492Z,11.95
2023-02-19T02:12:13.369Z,12.04
2023-02-19T02:15:16.924Z,11.97
2023-02-19T02:18:47.397Z,11.93
2023-02-19T02:22:16.641Z,11.91
2023-02-19T02:25:21.873Z,11.95
2023-02-19T02:28:52.693Z,11.94
2023-02-19T02:32:17.375Z,11.94
2023-02-19T02:35:27.343Z,11.93
2023-02-19T02:38:32.922Z,11.93
2023-02-19T02:41:35.429Z,11.92
2023-02-19T02:44:39.809Z,11.96
2023-02-19T02:47:55.257Z,11.90
2023-02-19T02:51:10.274Z,11.80
2023-02-19T02:54:44.621Z,12.01
2023-02-19T02:57:47.701Z,11.95
2023-02-19T03:01:15.240Z,11.96
2023-02-19T03:04:36.138Z,11.91
2023-02-19T03:07:47.011Z,11.77
2023-02-19T03:11:22.402Z,11.81
2023-02-19T03:14:54.666Z,11.85
2023-02-19T03:18:22.696Z,11.92
2023-02-19T03:21:28.447Z,11.78
2023-02-19T03:24:54.016Z,11.87
2023-02-19T03:28:01.548Z,11.74
2023-02-19T03:31:04.478Z,11.80
2023-02-19T03:34:12.305Z,11.76
2023-02-19T03:37:38.796Z,11.76
2023-02-19T03:41:14.398Z,11.77
2023-02-19T03:44:25.495Z,11.63
2023-02-19T03:47:33.993Z,11.68
2023-02-19T03:50:50.228Z,11.67
2023-02-19T03:54:22.704Z,11.55
2023-02-19T03:57:52.131Z,11.68
2023-02-19T04:01:05.717Z,11.63
2023-02-19T04:04:13.252Z,11.62
2023-02-19T04:07:15.762Z,11.73
2023-02-19T04:10:20.705Z,11.76
2023-02-19T04:13:38.809Z,11.61
2023-02-19T04:16:47.531Z,11.69
2023-02-19T04:19:51.923Z,11.56
2023-02-19T04:22:55.522Z,11.65
2023-02-19T04:26:00.260Z,11.51
2023-02-19T04:29:03.112Z,11.56
2023-02-19T04:32:05.654Z,11.55
2023-02-19T04:35:08.831Z,11.48
2023-02-19T04:38:12.273Z,11.44
2023-02-19T04:41:14.872Z,11.54
2023-02-19T04:44:17.231Z,11.35
2023-02-19T04:47:19.862Z,11.51
2023-02-19T04:50:23.217Z,11.46
2023-02-19T04:53:25.855Z,11.44
2023-02-19T04:56:28.236Z,11.49
2023-02-19T04:59:30.950Z,11.53
2023-02-19T05:02:33.272Z,11.52
2023-02-19T05:05:35.957Z,11.44
2023-02-19T05:08:38.926Z,11.43
2023-02-19T05:11:41.628Z,11.38
2023-02-19T05:14:43.971Z,11.49
2023-02-19T05:17:46.575Z,11.45
2023-02-19T05:20:50.492Z,11.41
2023-02-19T05:23:53.149Z,11.39
2023-02-19T05:26:55.609Z,11.34
2023-02-19T05:29:58.218Z,11.35
2023-02-19T05:33:00.536Z,11.24
2023-02-19T05:36:07.187Z,11.35
2023-02-19T05:39:11.511Z,11.22
2023-02-19T05:42:15.498Z,11.24
2023-02-19T05:45:17.817Z,11.33
2023-02-19T05:48:20.469Z,11.30
2023-02-19T05:51:24.885Z,11.29
2023-02-19T05:54:31.489Z,11.26
2023-02-19T05:57:33.802Z,11.18
2023-02-19T06:00:36.481Z,11.17
2023-02-19T06:03:39.112Z,11.24
2023-02-19T06:06:42.413Z,11.10
2023-02-19T06:09:45.154Z,11.08
2023-02-19T06:12:47.461Z,11.04
2023-02-19T06:15:50.075Z,11.14
2023-02-19T06:18:52.639Z,11.14
2023-02-19T06:21:55.330Z,10.99
2023-02-19T06:24:58.204Z,11.05
2023-02-19T06:28:00.945Z,10.98
2023-02-19T06:31:04.363Z,11.03
2023-02-19T06:34:07.025Z,11.01
2023-02-19T06:37:09.402Z,10.90
2023-02-19T06:40:12.049Z,10.99
2023-02-19T06:43:14.399Z,10.92
2023-02-19T06:46:17.242Z,10.96
2023-02-19T06:49:19.617Z,10.96
2023-02-19T06:52:22.259Z,10.92
2023-02-19T06:55:24.662Z,10.96
2023-02-19T06:58:27.928Z,10.88
2023-02-19T07:01:32.167Z,10.88
2023-02-19T07:04:34.973Z,11.00
2023-02-19T07:07:37.350Z,11.04
2023-02-19T07:10:40.019Z,11.07
2023-02-19T07:13:42.448Z,11.00
2023-02-19T07:16:47.378Z,11.15
2023-02-19T07:19:49.859Z,11.19
2023-02-19T07:22:52.566Z,11.17
2023-02-19T07:25:54.912Z,11.18
2023-02-19T07:28:57.572Z,11.08
2023-02-19T07:32:00.053Z,11.03
2023-02-19T07:35:02.702Z,11.11
2023-02-19T07:38:05.059Z,11.04
2023-02-19T07:41:08.038Z,10.93
2023-02-19T07:44:13.527Z,11.01
2023-02-19T07:47:16.123Z,10.77
2023-02-19T07:50:18.587Z,10.98
2023-02-19T07:53:22.427Z,10.92
2023-02-19T07:56:24.893Z,10.71
2023-02-19T07:59:27.588Z,10.58
2023-02-19T08:02:48.790Z,10.51
2023-02-19T08:05:53.817Z,10.50
2023-02-19T08:08:57.537Z,10.60
2023-02-19T08:12:18.899Z,10.57
2023-02-19T08:15:22.500Z,10.61
2023-02-19T08:18:27.331Z,10.69
2023-02-19T08:21:29.655Z,10.68
2023-02-19T08:24:33.941Z,10.65
2023-02-19T08:27:36.423Z,10.56
2023-02-19T08:30:41.107Z,10.74
2023-02-19T08:33:43.557Z,10.71
2023-02-19T08:36:46.191Z,10.71
2023-02-19T08:39:48.561Z,10.71
2023-02-19T08:42:51.925Z,10.83
2023-02-19T08:45:55.312Z,10.95
2023-02-19T08:48:58.312Z,10.95
2023-02-19T08:52:00.764Z,11.00
2023-02-19T08:55:05.335Z,11.03
2023-02-19T08:58:07.892Z,10.99
2023-02-19T09:01:13.415Z,10.99
2023-02-19T09:04:16.052Z,10.74
2023-02-19T09:07:20.357Z,10.77
2023-02-19T09:10:22.772Z,11.01
2023-02-19T09:13:25.421Z,11.08
2023-02-19T09:16:27.864Z,11.05
2023-02-19T09:19:31.089Z,10.94
2023-02-19T09:22:33.518Z,10.91
2023-02-19T09:25:36.193Z,10.85
2023-02-19T09:28:41.734Z,10.97
2023-02-19T09:31:45.913Z,11.11
2023-02-19T09:34:50.000Z,11.13
2023-02-19T09:37:52.726Z,11.18
2023-02-19T09:40:57.625Z,11.29
2023-02-19T09:44:02.789Z,11.34
2023-02-19T09:47:15.458Z,11.51
2023-02-19T09:50:22.950Z,11.72
2023-02-19T09:53:40.280Z,11.77
2023-02-19T09:56:43.200Z,12.19
2023-02-19T09:59:50.289Z,12.37
2023-02-19T10:02:57.285Z,12.38
2023-02-19T10:06:04.849Z,12.13
2023-02-19T10:09:20.224Z,12.36
2023-02-19T10:12:31.346Z,12.77
2023-02-19T10:15:47.989Z,12.98
2023-02-19T10:18:50.932Z,13.13
2023-02-19T10:21:53.351Z,13.42
2023-02-19T10:24:56.608Z,13.52
2023-02-19T10:28:00.314Z,13.70
2023-02-19T10:31:07.551Z,13.67
2023-02-19T10:34:19.569Z,13.65
2023-02-19T10:37:22.411Z,13.58
2023-02-19T10:40:27.780Z,13.31
2023-02-19T10:43:34.006Z,13.15
2023-02-19T10:46:43.588Z,13.11
2023-02-19T10:49:48.889Z,13.20
2023-02-19T10:52:55.741Z,13.36
2023-02-19T10:56:22.457Z,13.29
2023-02-19T10:59:27.289Z,13.69
2023-02-19T11:02:31.942Z,13.87
2023-02-19T11:05:36.652Z,14.15
2023-02-19T11:08:46.852Z,14.28
2023-02-19T11:11:53.710Z,14.45
2023-02-19T11:14:56.782Z,14.50
2023-02-19T11:18:10.686Z,14.44
2023-02-19T11:21:33.594Z,14.41
2023-02-19T11:24:40.494Z,14.56
2023-02-19T11:28:07.275Z,14.43
2023-02-19T11:31:16.113Z,14.52
2023-02-19T11:34:21.364Z,14.64
2023-02-19T11:37:23.722Z,14.62
2023-02-19T11:40:53.364Z,14.70
2023-02-19T11:44:25.823Z,14.78
2023-02-19T11:47:49.612Z,14.75
2023-02-19T11:51:23.635Z,14.82
2023-02-19T11:54:42.669Z,14.68
2023-02-19T11:58:12.073Z,14.91
2023-02-19T12:01:42.391Z,14.91
2023-02-19T12:05:13.164Z,14.96
2023-02-19T12:08:38.415Z,14.97
2023-02-19T12:11:55.778Z,15.05
2023-02-19T12:15:35.581Z,15.07
2023-02-19T12:18:38.169Z,15.09
2023-02-19T12:21:56.046Z,15.23
2023-02-19T12:25:15.299Z,15.26
2023-02-19T12:28:23.729Z,15.14
2023-02-19T12:31:33.026Z,15.01
2023-02-19T12:34:49.421Z,15.09
2023-02-19T12:38:03.774Z,15.02
2023-02-19T12:41:41.670Z,15.12
2023-02-19T12:44:51.648Z,15.31
2023-02-19T12:48:28.125Z,15.34
2023-02-19T12:52:02.065Z,15.44
2023-02-19T12:55:40.553Z,14.66
2023-02-19T12:58:48.900Z,13.73
2023-02-19T13:02:00.170Z,13.47
2023-02-19T13:05:11.060Z,12.83
2023-02-19T13:08:16.095Z,12.22
2023-02-19T13:11:57.401Z,12.03
2023-02-19T13:15:21.082Z,12.21
2023-02-19T13:18:30.220Z,12.54
2023-02-19T13:21:54.808Z,12.86
2023-02-19T13:24:58.665Z,13.28
2023-02-19T13:28:34.401Z,13.41
2023-02-19T13:31:51.518Z,13.75
2023-02-19T13:35:38.017Z,14.18
2023-02-19T13:38:46.984Z,14.35
2023-02-19T13:41:50.738Z,14.12
2023-02-19T13:44:57.888Z,14.03
2023-02-19T13:48:14.554Z,13.57
2023-02-19T13:51:21.709Z,12.83
2023-02-19T13:54:29.634Z,12.52
2023-02-19T13:57:32.547Z,12.02
2023-02-19T14:00:52.200Z,11.72
2023-02-19T14:04:08.868Z,11.86
2023-02-19T14:07:11.238Z,11.72
2023-02-19T14:10:35.032Z,11.73
2023-02-19T14:13:52.360Z,11.77
2023-02-19T14:16:58.703Z,11.78
2023-02-19T14:20:35.935Z,11.72
2023-02-19T14:23:38.653Z,11.87
2023-02-19T14:26:41.797Z,11.93
2023-02-19T14:29:44.998Z,11.91
2023-02-19T14:32:54.562Z,11.93
2023-02-19T14:36:28.903Z,12.03
2023-02-19T14:39:35.200Z,12.12
2023-02-19T14:42:37.911Z,12.16
2023-02-19T14:45:44.938Z,12.03
2023-02-19T14:48:49.822Z,11.98
2023-02-19T14:52:01.231Z,11.98
2023-02-19T14:55:09.867Z,11.90
2023-02-19T14:58:17.536Z,11.86
2023-02-19T15:01:27.671Z,11.74
2023-02-19T15:04:36.543Z,11.61
2023-02-19T15:07:42.034Z,11.46
2023-02-19T15:10:44.956Z,11.52
2023-02-19T15:13:52.444Z,11.39
2023-02-19T15:17:00.678Z,11.49
2023-02-19T15:20:09.429Z,11.50
2023-02-19T15:23:21.034Z,11.53
2023-02-19T15:26:35.649Z,11.50
2023-02-19T15:29:46.008Z,11.59
2023-02-19T15:32:59.946Z,11.45
2023-02-19T15:36:06.646Z,11.43
2023-02-19T15:39:19.482Z,11.40
2023-02-19T15:42:28.470Z,11.26
2023-02-19T15:45:46.313Z,11.31
2023-02-19T15:48:54.497Z,11.27
2023-02-19T15:52:05.807Z,11.30
2023-02-19T15:55:36.610Z,11.24
2023-02-19T15:58:45.620Z,11.23
2023-02-19T16:01:48.391Z,11.22
2023-02-19T16:04:51.134Z,11.19
2023-02-19T16:08:08.631Z,11.11
2023-02-19T16:11:23.528Z,11.14
2023-02-19T16:14:34.918Z,11.13
2023-02-19T16:17:37.725Z,11.14
2023-02-19T16:20:40.430Z,11.12
2023-02-19T16:23:45.448Z,11.10
2023-02-19T16:26:47.932Z,11.13
2023-02-19T16:29:51.805Z,11.14
2023-02-19T16:33:39.414Z,11.02
2023-02-19T16:36:43.531Z,11.14
2023-02-19T16:39:45.947Z,11.07
2023-02-19T16:42:48.536Z,10.83
2023-02-19T16:45:51.008Z,10.75
2023-02-19T16:48:54.556Z,10.48
2023-02-19T16:51:59.833Z,10.21
2023-02-19T16:55:03.784Z,10.19
2023-02-19T16:58:06.251Z,10.04
2023-02-19T17:01:09.392Z,10.09
2023-02-19T17:04:15.291Z,10.12
2023-02-19T17:07:18.819Z,10.01
2023-02-19T17:10:26.417Z,10.07
2023-02-19T17:13:29.913Z,10.00
2023-02-19T17:16:40.286Z,9.83
2023-02-19T17:19:43.172Z,9.99
2023-02-19T17:22:45.546Z,9.97
2023-02-19T17:25:48.145Z,9.99
2023-02-19T17:28:51.080Z,9.97
2023-02-19T17:31:53.912Z,9.95
2023-02-19T17:34:56.375Z,10.09
2023-02-19T17:37:59.074Z,10.07
2023-02-19T17:41:01.398Z,10.14
2023-02-19T17:44:04.161Z,10.10
2023-02-19T17:47:07.678Z,9.90
2023-02-19T17:50:15.256Z,9.98
2023-02-19T17:53:18.371Z,9.83
2023-02-19T17:56:25.685Z,9.93
2023-02-19T17:59:28.089Z,9.81
2023-02-19T18:02:30.923Z,9.74
2023-02-19T18:05:33.627Z,9.77
2023-02-19T18:08:36.052Z,9.90
2023-02-19T18:11:38.662Z,9.93
2023-02-19T18:14:41.103Z,9.95
2023-02-19T18:17:44.153Z,9.92
2023-02-19T18:20:46.511Z,10.00
2023-02-19T18:23:49.163Z,9.86
2023-02-19T18:26:51.434Z,9.97
2023-02-19T18:29:56.189Z,9.96
2023-02-19T18:32:58.549Z,9.82
2023-02-19T18:36:01.415Z,9.88
2023-02-19T18:39:03.813Z,9.88
2023-02-19T18:42:06.545Z,9.75
2023-02-19T18:45:09.438Z,9.76
2023-02-19T18:48:12.671Z,9.87
2023-02-19T18:51:15.016Z,9.80
2023-02-19T18:54:17.696Z,9.66
2023-02-19T18:57:22.018Z,9.76
2023-02-19T19:00:26.583Z,9.76
2023-02-19T19:03:30.174Z,9.72
2023-02-19T19:06:33.348Z,9.73
2023-02-19T19:09:36.031Z,9.74
2023-02-19T19:12:38.701Z,9.77
2023-02-19T19:15:41.514Z,9.76
2023-02-19T19:18:44.385Z,9.73
2023-02-19T19:21:54.549Z,9.71
2023-02-19T19:24:57.173Z,9.64
2023-02-19T19:27:59.652Z,9.59
2023-02-19T19:31:02.869Z,9.38
2023-02-19T19:34:05.474Z,9.41
2023-02-19T19:37:08.234Z,9.18
2023-02-19T19:40:11.202Z,9.23
2023-02-19T19:43:13.856Z,9.20
2023-02-19T19:46:19.903Z,9.13
2023-02-19T19:49:23.391Z,9.12
2023-02-19T19:52:25.721Z,8.96
2023-02-19T19:55:28.376Z,8.97
2023-02-19T19:58:30.757Z,8.86
2023-02-19T20:01:33.405Z,8.84
2023-02-19T20:04:36.046Z,8.76
2023-02-19T20:07:41.602Z,8.80
2023-02-19T20:10:45.517Z,8.79
2023-02-19T20:13:47.861Z,8.58
2023-02-19T20:16:50.695Z,8.72
2023-02-19T20:19:53.569Z,8.80
2023-02-19T20:22:56.233Z,8.82
2023-02-19T20:25:58.641Z,8.83
2023-02-19T20:29:01.339Z,8.67
2023-02-19T20:32:04.100Z,8.65
2023-02-19T20:35:07.255Z,8.60
2023-02-19T20:38:09.581Z,8.53
2023-02-19T20:41:12.668Z,8.75
2023-02-19T20:44:15.889Z,8.67
2023-02-19T20:47:18.657Z,8.78
2023-02-19T20:50:21.713Z,8.65
2023-02-19T20:53:24.662Z,8.69
2023-02-19T20:56:26.993Z,8.54
2023-02-19T20:59:35.093Z,8.51
2023-02-19T21:02:37.623Z,8.47
2023-02-19T21:05:40.761Z,8.45
2023-02-19T21:08:43.132Z,8.26
2023-02-19T21:11:46.047Z,8.11
2023-02-19T21:14:49.338Z,8.21
2023-02-19T21:17:52.095Z,8.19
2023-02-19T21:20:54.535Z,8.05
2023-02-19T21:23:59.232Z,7.97
2023-02-19T21:27:01.673Z,7.87
2023-02-19T21:30:07.922Z,7.78
2023-02-19T21:33:10.329Z,7.60
2023-02-19T21:36:13.294Z,7.50
2023-02-19T21:39:18.676Z,7.30
2023-02-19T21:42:21.374Z,7.27
2023-02-19T21:45:23.995Z,7.24
2023-02-19T21:48:26.794Z,7.15
2023-02-19T21:51:35.237Z,7.00
2023-02-19T21:54:38.000Z,7.09
2023-02-19T21:57:40.468Z,7.01
2023-02-19T22:00:43.070Z,6.83
2023-02-19T22:03:45.686Z,6.79
2023-02-19T22:06:48.008Z,6.72
2023-02-19T22:09:51.816Z,6.76
2023-02-19T22:12:54.219Z,6.71
2023-02-19T22:15:56.902Z,6.60
2023-02-19T22:19:00.242Z,6.60
2023-02-19T22:22:03.202Z,6.53
2023-02-19T22:25:05.785Z,6.52
2023-02-19T22:28:08.460Z,6.52
2023-02-19T22:31:10.833Z,6.34
2023-02-19T22:34:15.548Z,6.42
2023-02-19T22:37:18.010Z,6.42
2023-02-19T22:40:20.761Z,6.39
2023-02-19T22:43:23.066Z,6.36
2023-02-19T22:46:28.640Z,6.26
2023-02-19T22:49:30.977Z,6.20
2023-02-19T22:52:33.566Z,6.24
2023-02-19T22:55:35.926Z,6.25
2023-02-19T22:58:38.577Z,6.25
2023-02-19T23:01:41.703Z,6.29
2023-02-19T23:04:44.450Z,6.07
2023-02-19T23:07:46.797Z,6.16
2023-02-19T23:10:50.199Z,6.12
2023-02-19T23:13:52.528Z,6.16
2023-02-19T23:16:55.207Z,6.11
2023-02-19T23:19:57.543Z,6.08
2023-02-19T23:23:00.260Z,5.92
2023-02-19T23:26:03.840Z,6.00
2023-02-19T23:29:06.441Z,6.00
2023-02-19T23:32:08.908Z,5.99
2023-02-19T23:35:11.612Z,5.89
2023-02-19T23:38:13.947Z,5.83
2023-02-19T23:41:17.753Z,5.97
2023-02-19T23:44:21.844Z,5.74
2023-02-19T23:47:26.561Z,5.91
2023-02-19T23:50:28.960Z,5.86
2023-02-19T23:53:31.549Z,5.84
2023-02-19T23:56:34.432Z,5.75
2023-02-19T23:59:37.126Z,5.86
